Time;durP1;ratioP1;P1;durP2;ratioP2;P2;SDS_P1;SDS_P2;PMS_P1;PMS_P2;Temp;Humidity;BMP_temperature;BMP_pressure;BME280_temperature;BME280_humidity;BME280_pressure;Samples;Min_cycle;Max_cycle;Signal;HPM_P1;HPM_P2
2023/02/12 00:00:47;;;;;;;0.10;0.10;;;;;;;-145.06;100.00;53892.38;10360485;28;20682;-81
2023/02/12 00:05:48;;;;;;;0.00;0.00;;;;;;;-145.06;100.00;53870.09;10359365;28;20030;-81
2023/02/12 00:10:48;;;;;;;0.00;0.00;;;;;;;-145.06;100.00;53868.09;10360011;28;20459;-80
2023/02/12 00:15:48;;;;;;;0.10;0.10;;;;;;;-145.06;100.00;53892.38;10361294;28;20030;-82
2023/02/12 00:20:48;;;;;;;0.00;0.00;;;;;;;-145.06;100.00;53874.16;10355493;28;20500;-81
2023/02/12 00:25:49;;;;;;;0.00;0.00;;;;;;;-145.06;100.00;53910.63;10351299;28;20034;-81
2023/02/12 00:30:49;;;;;;;0.10;0.10;;;;;;;-145.06;100.00;53926.81;10364645;28;20034;-81
2023/02/12 00:35:56;;;;;;;0.00;0.00;;;;;;;-145.06;100.00;53862.00;10371860;23;20355;-82
2023/02/12 00:40:56;;;;;;;0.00;0.00;;;;;;;-145.06;100.00;53864.03;10380201;28;20038;-82
2023/02/12 00:45:57;;;;;;;0.00;0.00;;;;;;;-145.06;100.00;53870.09;10379663;28;20038;-82
2023/02/12 00:50:57;;;;;;;0.00;0.00;;;;;;;-145.06;100.00;53876.19;10383466;28;20512;-80
2023/02/12 00:55:58;;;;;;;0.00;0.00;;;;;;;-145.06;100.00;53847.84;10373294;28;20023;-82
2023/02/12 01:00:58;;;;;;;0.00;0.00;;;;;;;-145.06;100.00;53884.28;10382519;28;20030;-81
2023/02/12 01:05:59;;;;;;;0.10;0.10;;;;;;;-145.06;100.00;53853.91;10380299;28;20029;-80
2023/02/12 01:11:02;;;;;;;0.10;0.10;;;;;;;-145.06;100.00;53910.63;10373665;28;20370;-80
2023/02/12 01:16:12;;;;;;;0.10;0.10;;;;;;;-145.06;100.00;53882.25;10382368;28;20261;-83
2023/02/12 01:21:14;;;;;;;0.00;0.00;;;;;;;-145.06;100.00;53855.94;10376014;28;20084;-82
2023/02/12 01:26:16;;;;;;;0.00;0.00;;;;;;;-145.06;100.00;53864.03;10381242;28;20108;-81
2023/02/12 01:31:19;;;;;;;0.00;0.00;;;;;;;-145.06;100.00;53878.22;10382756;28;20029;-81
2023/02/12 01:36:19;;;;;;;0.00;0.00;;;;;;;-145.06;100.00;53845.81;10373951;28;20100;-82
2023/02/12 01:41:22;;;;;;;0.00;0.00;;;;;;;-145.06;100.00;53890.38;10381561;28;20124;-83
2023/02/12 01:46:23;;;;;;;0.00;0.00;;;;;;;-145.06;100.00;53870.09;11031449;22;20063;-86
2023/02/12 01:51:24;;;;;;;0.00;0.00;;;;;;;-145.06;100.00;53880.22;10344399;28;20033;-86
2023/02/12 01:56:25;;;;;;;0.00;0.00;;;;;;;-145.06;100.00;53920.75;10347451;28;20042;-86
2023/02/12 02:01:28;;;;;;;0.00;0.00;;;;;;;-145.06;100.00;53884.28;10351221;28;20037;-85
2023/02/12 02:06:33;;;;;;;0.00;0.00;;;;;;;-145.06;100.00;53853.91;10393423;23;20137;-83
2023/02/12 02:17:11;;;;;;;0.00;0.00;;;;;;;-145.06;100.00;53855.94;10365388;28;20038;-82
2023/02/12 02:22:26;;;;;;;0.00;0.00;;;;;;;-145.06;100.00;53924.78;10324954;28;20045;-83
2023/02/12 02:27:39;;;;;;;0.00;0.00;;;;;;;-145.06;100.00;53898.47;10344414;28;20432;-82
2023/02/12 02:32:47;;;;;;;0.00;0.00;;;;;;;-145.06;100.00;53890.38;10334600;28;20035;-82
2023/02/12 02:37:58;;;;;;;0.00;0.00;;;;;;;-145.06;100.00;53908.59;10349535;28;20109;-83
2023/02/12 02:43:02;;;;;;;0.00;0.00;;;;;;;-145.06;100.00;53904.53;10342361;28;20069;-83
2023/02/12 02:48:13;;;;;;;0.08;0.08;;;;;;;-145.06;100.00;53896.44;10340514;28;20037;-80
2023/02/12 02:53:23;;;;;;;0.00;0.00;;;;;;;-145.06;100.00;53866.06;10337119;28;20112;-80
2023/02/12 02:58:30;;;;;;;0.00;0.00;;;;;;;-145.06;100.00;53908.59;10338678;28;20070;-81
2023/02/12 03:03:45;;;;;;;0.00;0.00;;;;;;;-145.06;100.00;53884.28;10346423;28;20060;-83
2023/02/12 03:08:53;;;;;;;0.00;0.00;;;;;;;-145.06;100.00;53888.34;10332718;28;20499;-82
2023/02/12 03:14:07;;;;;;;0.00;0.00;;;;;;;-145.06;100.00;53902.50;10353799;28;20064;-82
2023/02/12 03:19:17;;;;;;;0.00;0.00;;;;;;;-145.06;100.00;53922.75;10352033;28;20481;-82
2023/02/12 03:24:27;;;;;;;0.00;0.00;;;;;;;-145.06;100.00;53874.16;10334736;28;20034;-82
2023/02/12 03:29:28;;;;;;;0.00;0.00;;;;;;;-145.06;100.00;53912.63;10340205;28;20075;-82
2023/02/12 03:34:46;;;;;;;0.00;0.00;;;;;;;-145.06;100.00;53908.59;10326053;28;20034;-82
2023/02/12 03:40:01;;;;;;;0.00;0.00;;;;;;;-145.06;100.00;53904.53;10344513;28;20390;-80
2023/02/12 03:45:14;;;;;;;0.00;0.00;;;;;;;-145.06;100.00;53926.81;10343647;28;20030;-83
2023/02/12 03:50:22;;;;;;;0.00;0.00;;;;;;;-145.06;100.00;53819.47;10348218;28;20022;-82
2023/02/12 03:55:23;;;;;;;0.00;0.00;;;;;;;-145.06;100.00;53908.59;10356072;28;20514;-80
2023/02/12 04:00:24;;;;;;;0.00;0.00;;;;;;;-145.06;100.00;53920.75;10358026;28;20056;-82
2023/02/12 04:05:26;;;;;;;0.00;0.00;;;;;;;-145.06;100.00;53920.75;10344357;28;20034;-82
2023/02/12 04:10:45;;;;;;;0.00;0.00;;;;;;;-145.06;100.00;53864.03;10363437;28;20049;-81
2023/02/12 04:16:09;;;;;;;0.00;0.00;;;;;;;-145.06;100.00;53872.13;10348396;28;20030;-82
2023/02/12 04:21:56;;;;;;;0.00;0.00;;;;;;;-145.06;100.00;53882.25;10360217;28;20026;-82
2023/02/12 04:27:02;;;;;;;0.00;0.00;;;;;;;-145.06;100.00;53910.63;10350199;28;20499;-82
2023/02/12 04:32:21;;;;;;;0.00;0.00;;;;;;;-145.06;100.00;53904.53;10334240;28;20023;-81
2023/02/12 04:37:36;;;;;;;0.00;0.00;;;;;;;-145.06;100.00;53870.09;10341774;28;20401;-82
2023/02/12 04:42:44;;;;;;;0.00;0.00;;;;;;;-145.06;100.00;53888.34;10335913;28;20042;-81
2023/02/12 04:47:45;;;;;;;0.00;0.00;;;;;;;-145.06;100.00;53882.25;10350724;28;20034;-81
2023/02/12 04:52:46;;;;;;;0.00;0.00;;;;;;;-145.06;100.00;53853.91;10357091;28;20041;-83
2023/02/12 04:57:46;;;;;;;0.00;0.00;;;;;;;-145.06;100.00;53943.00;10336370;28;20036;-81
2023/02/12 05:02:46;;;;;;;0.00;0.00;;;;;;;-145.06;100.00;53888.34;10368398;28;20038;-82
2023/02/12 05:07:47;;;;;;;0.00;0.00;;;;;;;-145.06;100.00;53932.88;10354793;28;20125;-82
2023/02/12 05:12:51;;;;;;;0.00;0.00;;;;;;;-145.06;100.00;53924.78;10346285;28;20117;-82
2023/02/12 05:17:51;;;;;;;0.00;0.00;;;;;;;-145.06;100.00;53872.13;10372237;28;20026;-82
2023/02/12 05:22:52;;;;;;;0.00;0.00;;;;;;;-145.06;100.00;53864.03;10339038;28;20030;-83
2023/02/12 05:27:55;;;;;;;0.10;0.10;;;;;;;-145.06;100.00;53878.22;10349646;28;20270;-81
2023/02/12 05:32:55;;;;;;;0.00;0.00;;;;;;;-145.06;100.00;53886.31;10344008;28;20022;-81
2023/02/12 05:37:56;;;;;;;0.00;0.00;;;;;;;-145.06;100.00;53855.94;10352229;28;20401;-82
2023/02/12 05:42:56;;;;;;;0.00;0.00;;;;;;;-145.06;100.00;53864.03;10338327;28;20130;-82
2023/02/12 05:47:56;;;;;;;0.00;0.00;;;;;;;-145.06;100.00;53866.06;10342506;28;20468;-82
2023/02/12 05:53:01;;;;;;;0.00;0.00;;;;;;;-145.06;100.00;53868.09;10337345;28;20042;-82
2023/02/12 05:58:01;;;;;;;0.00;0.00;;;;;;;-145.06;100.00;53849.84;10361041;28;20030;-82
2023/02/12 06:03:02;;;;;;;0.00;0.00;;;;;;;-145.06;100.00;53890.38;10353418;28;20025;-83
2023/02/12 06:08:02;;;;;;;0.00;0.00;;;;;;;-145.06;100.00;53904.53;10321000;28;20041;-82
2023/02/12 06:13:03;;;;;;;0.00;0.00;;;;;;;-145.06;100.00;53878.22;10348282;28;20030;-81
2023/02/12 06:18:03;;;;;;;0.00;0.00;;;;;;;-145.06;100.00;53884.28;10356425;28;20134;-81
2023/02/12 06:23:03;;;;;;;0.00;0.00;;;;;;;-145.06;100.00;53904.53;10344002;28;20030;-81
2023/02/12 06:28:04;;;;;;;0.00;0.00;;;;;;;-145.06;100.00;53874.16;10343873;28;20485;-81
2023/02/12 06:33:04;;;;;;;0.00;0.00;;;;;;;-145.06;100.00;53886.31;10336320;28;20022;-82
2023/02/12 06:38:05;;;;;;;0.10;0.10;;;;;;;-145.06;100.00;53892.38;10325730;28;20404;-82
2023/02/12 06:43:05;;;;;;;0.00;0.00;;;;;;;-145.06;100.00;53904.53;10338416;28;20134;-82
2023/02/12 06:48:05;;;;;;;0.00;0.00;;;;;;;-145.06;100.00;53888.34;10348043;28;20037;-81
2023/02/12 06:53:05;;;;;;;0.00;0.00;;;;;;;-145.06;100.00;53894.41;10349944;28;20037;-82
2023/02/12 06:58:06;;;;;;;0.00;0.00;;;;;;;-145.06;100.00;53872.13;10358222;28;20030;-81
2023/02/12 07:03:06;;;;;;;0.00;0.00;;;;;;;-145.06;100.00;53870.09;10342945;28;20037;-82
2023/02/12 07:08:06;;;;;;;0.00;0.00;;;;;;;-145.06;100.00;53890.38;10347326;28;20263;-82
2023/02/12 07:13:07;;;;;;;0.00;0.00;;;;;;;-145.06;100.00;53870.09;10346539;28;20034;-82
2023/02/12 07:18:07;;;;;;;0.00;0.00;;;;;;;-145.06;100.00;53876.19;10339483;28;20034;-82
2023/02/12 07:23:10;;;;;;;0.10;0.10;;;;;;;-145.06;100.00;53892.38;10341987;28;20034;-82
2023/02/12 07:28:10;;;;;;;0.00;0.00;;;;;;;-145.06;100.00;53884.28;10334317;28;20048;-82
2023/02/12 07:33:11;;;;;;;0.00;0.00;;;;;;;-145.06;100.00;53884.28;10328116;28;20078;-82
2023/02/12 07:38:11;;;;;;;0.00;0.00;;;;;;;-145.06;100.00;53874.16;10349843;28;20273;-82
2023/02/12 07:43:12;;;;;;;0.00;0.00;;;;;;;-145.06;100.00;53859.97;10344190;28;20088;-83
2023/02/12 07:48:12;;;;;;;0.00;0.00;;;;;;;-145.06;100.00;53896.44;10337323;28;20022;-81
2023/02/12 07:53:12;;;;;;;0.00;0.00;;;;;;;-145.06;100.00;53864.03;10333220;28;20281;-82
2023/02/12 07:58:12;;;;;;;0.10;0.10;;;;;;;-145.06;100.00;53862.00;10356207;28;20030;-82
2023/02/12 08:03:13;;;;;;;0.00;0.00;;;;;;;-145.06;100.00;53876.19;10343870;23;20324;-82
2023/02/12 08:08:13;;;;;;;0.00;0.00;;;;;;;-145.06;100.00;53857.97;10326849;28;20034;-82
2023/02/12 08:13:13;;;;;;;0.10;0.10;;;;;;;-145.06;100.00;53874.16;10288799;28;20027;-82
2023/02/12 08:18:14;;;;;;;0.00;0.00;;;;;;;-145.06;100.00;53864.03;10280225;28;20378;-82
2023/02/12 08:23:14;;;;;;;0.00;0.00;;;;;;;-145.06;100.00;53872.13;10266932;28;20050;-82
2023/02/12 08:28:14;;;;;;;0.10;0.10;;;;;;;-145.06;100.00;53851.88;10287667;28;20130;-82
2023/02/12 08:33:14;;;;;;;0.10;0.10;;;;;;;-145.06;100.00;53910.63;10285266;28;20042;-82
2023/02/12 08:38:15;;;;;;;0.00;0.00;;;;;;;-145.06;100.00;53878.22;10283343;28;20094;-82
2023/02/12 08:43:15;;;;;;;0.10;0.10;;;;;;;-145.06;100.00;53872.13;10288730;28;20114;-82
2023/02/12 08:48:15;;;;;;;0.10;0.10;;;;;;;-145.06;100.00;53898.47;10285296;28;20058;-82
2023/02/12 08:53:15;;;;;;;0.00;0.00;;;;;;;-145.06;100.00;53845.81;10284435;28;20039;-82
2023/02/12 08:58:17;;;;;;;0.10;0.10;;;;;;;-145.06;100.00;53839.72;10279291;28;20034;-82
2023/02/12 09:03:17;;;;;;;0.00;0.00;;;;;;;-145.06;100.00;53851.88;10283493;28;20134;-83
2023/02/12 09:08:18;;;;;;;0.00;0.00;;;;;;;-145.06;100.00;53880.22;10284204;28;20102;-82
2023/02/12 09:13:18;;;;;;;0.00;0.00;;;;;;;-145.06;100.00;53900.50;10288001;28;20046;-83
2023/02/12 09:18:18;;;;;;;0.10;0.10;;;;;;;-145.06;100.00;53855.94;10263080;28;20287;-83
2023/02/12 09:23:19;;;;;;;0.10;0.10;;;;;;;-145.06;100.00;53864.03;10286233;28;20035;-83
2023/02/12 09:28:19;;;;;;;0.10;0.10;;;;;;;-145.06;100.00;53884.28;10306688;28;20043;-83
2023/02/12 09:33:21;;;;;;;0.00;0.00;;;;;;;-145.06;100.00;53870.09;10281104;28;20121;-83
2023/02/12 09:38:21;;;;;;;0.10;0.10;;;;;;;-145.06;100.00;53843.78;10281907;28;20035;-83
2023/02/12 09:43:35;;;;;;;0.00;0.00;;;;;;;-145.06;100.00;53904.53;10288058;28;20053;-83
2023/02/12 09:49:06;;;;;;;0.00;0.00;;;;;;;-145.06;100.00;53864.03;10283724;28;20500;-83
2023/02/12 09:54:13;;;;;;;0.00;0.00;;;;;;;-145.06;100.00;53882.25;10285948;28;20039;-83
2023/02/12 09:59:38;;;;;;;0.10;0.10;;;;;;;-145.06;100.00;53900.50;10263323;28;20129;-83
2023/02/12 10:04:40;;;;;;;0.10;0.10;;;;;;;-145.06;100.00;53886.31;10278778;28;20039;-83
2023/02/12 10:09:54;;;;;;;0.00;0.00;;;;;;;-145.06;100.00;53916.69;10282754;28;20031;-83
2023/02/12 10:15:10;;;;;;;0.10;0.10;;;;;;;-145.06;100.00;53843.78;10268543;28;20054;-83
2023/02/12 10:20:30;;;;;;;0.10;0.10;;;;;;;-145.06;100.00;53884.28;10279603;28;20042;-83
2023/02/12 10:25:58;;;;;;;0.00;0.00;;;;;;;-145.06;100.00;53855.94;10266787;28;20039;-83
2023/02/12 10:31:10;;;;;;;0.10;0.10;;;;;;;-145.06;100.00;53894.41;10275428;28;20035;-83
2023/02/12 10:36:17;;;;;;;0.10;0.10;;;;;;;-145.06;100.00;53872.13;10262838;28;20031;-83
2023/02/12 10:41:17;;;;;;;0.00;0.00;;;;;;;-145.06;100.00;53866.06;10260319;28;20035;-83
2023/02/12 10:46:18;;;;;;;0.00;0.00;;;;;;;-145.06;100.00;53862.00;10267975;28;20206;-83
2023/02/12 10:51:49;;;;;;;0.10;0.10;;;;;;;-145.06;100.00;53859.97;10278470;28;20679;-83
2023/02/12 10:56:50;;;;;;;0.10;0.10;;;;;;;-145.06;100.00;53862.00;10265192;28;20054;-84
2023/02/12 11:01:51;;;;;;;0.10;0.10;;;;;;;-145.06;100.00;53868.09;10277839;28;20042;-83
2023/02/12 11:07:06;;;;;;;0.10;0.10;;;;;;;-145.06;100.00;53876.19;10267933;28;20041;-83
2023/02/12 11:12:18;;;;;;;0.10;0.10;;;;;;;-145.06;100.00;53892.38;10272339;28;20031;-83
2023/02/12 11:17:25;;;;;;;0.10;0.10;;;;;;;-145.06;100.00;53849.84;10279075;28;20031;-84
2023/02/12 11:22:26;;;;;;;0.10;0.10;;;;;;;-145.06;100.00;53878.22;10282707;28;20411;-83
2023/02/12 11:27:29;;;;;;;0.00;0.00;;;;;;;-145.06;100.00;53892.38;10269499;28;20035;-83
2023/02/12 11:32:29;;;;;;;0.10;0.10;;;;;;;-145.06;100.00;53892.38;10265013;28;20280;-83
2023/02/12 11:37:35;;;;;;;0.00;0.00;;;;;;;-145.06;100.00;53825.56;10284163;28;20514;-83
2023/02/12 11:42:37;;;;;;;0.10;0.10;;;;;;;-145.06;100.00;53855.94;10254622;28;20387;-83
2023/02/12 11:47:39;;;;;;;0.10;0.10;;;;;;;-145.06;100.00;53851.88;10277113;28;20118;-83
2023/02/12 11:52:40;;;;;;;0.00;0.00;;;;;;;-145.06;100.00;53886.31;10279450;28;20034;-83
2023/02/12 11:57:46;;;;;;;0.08;0.08;;;;;;;-145.06;100.00;53835.69;10258588;28;20043;-83
2023/02/12 12:03:03;;;;;;;0.00;0.00;;;;;;;-145.06;100.00;53839.72;10258717;28;20035;-83
2023/02/12 12:08:12;;;;;;;0.10;0.10;;;;;;;-145.06;100.00;53916.69;10286598;28;20093;-83
2023/02/12 12:13:23;;;;;;;0.00;0.00;;;;;;;-145.06;100.00;53855.94;10260907;28;20070;-83
2023/02/12 12:24:04;;;;;;;0.10;0.10;;;;;;;-145.06;100.00;53892.38;10286381;28;20026;-83
2023/02/12 12:29:23;;;;;;;0.10;0.10;;;;;;;-145.06;100.00;53896.44;10283340;28;20034;-83
2023/02/12 12:34:26;;;;;;;0.00;0.00;;;;;;;-145.06;100.00;53857.97;10285500;28;20035;-83
2023/02/12 12:39:48;;;;;;;0.10;0.10;;;;;;;-145.06;100.00;53864.03;10288636;28;20038;-83
2023/02/12 12:45:07;;;;;;;0.08;0.08;;;;;;;-145.06;100.00;53868.09;10282715;28;20108;-83
2023/02/12 12:50:43;;;;;;;0.00;0.00;;;;;;;-145.06;100.00;53843.78;10284413;28;20063;-83
2023/02/12 12:55:50;;;;;;;0.00;0.00;;;;;;;-145.06;100.00;53853.91;10269667;28;20466;-82
2023/02/12 13:01:05;;;;;;;0.10;0.10;;;;;;;-145.06;100.00;53898.47;10284279;28;20039;-83
2023/02/12 13:06:48;;;;;;;0.10;0.10;;;;;;;-145.06;100.00;53866.06;10269771;28;20118;-83
2023/02/12 13:12:00;;;;;;;0.00;0.00;;;;;;;-145.06;100.00;53847.84;10270517;28;20097;-83
2023/02/12 13:17:12;;;;;;;0.10;0.10;;;;;;;-145.06;100.00;53859.97;10285282;28;20558;-83
2023/02/12 13:22:31;;;;;;;0.05;0.05;;;;;;;-145.06;100.00;53904.53;10271630;28;20030;-83
2023/02/12 13:27:39;;;;;;;0.10;0.10;;;;;;;-145.06;100.00;53870.09;10284022;28;20027;-83
2023/02/12 13:32:43;;;;;;;0.10;0.10;;;;;;;-145.06;100.00;53829.59;10281919;28;20375;-84
2023/02/12 13:37:47;;;;;;;;;;;;;;;-145.06;100.00;53872.13;10281487;28;20510;-83
2023/02/12 13:43:15;;;;;;;0.10;0.10;;;;;;;-145.06;100.00;53900.50;10284947;28;19914;-83
2023/02/12 13:48:57;;;;;;;0.10;0.10;;;;;;;-145.06;100.00;53884.28;10289837;28;20113;-83
2023/02/12 13:54:11;;;;;;;0.10;0.10;;;;;;;-145.06;100.00;53896.44;10275375;28;20031;-82
2023/02/12 13:59:33;;;;;;;0.00;0.00;;;;;;;-145.06;100.00;53855.94;10268643;28;20041;-83
2023/02/12 14:04:42;;;;;;;0.10;0.10;;;;;;;-145.06;100.00;53864.03;10272601;28;20132;-83
2023/02/12 14:10:01;;;;;;;0.00;0.00;;;;;;;-145.06;100.00;53880.22;10280832;28;20545;-83
2023/02/12 14:15:20;;;;;;;0.10;0.10;;;;;;;-145.06;100.00;53849.84;10285232;28;20035;-83
2023/02/12 14:20:32;;;;;;;0.10;0.10;;;;;;;-145.06;100.00;53874.16;10263641;28;20085;-83
2023/02/12 14:25:43;;;;;;;0.03;0.03;;;;;;;-145.06;100.00;53884.28;10282954;28;20114;-83
2023/02/12 14:30:43;;;;;;;0.10;0.10;;;;;;;-145.06;100.00;53847.84;10264358;28;20030;-83
2023/02/12 14:35:45;;;;;;;0.00;0.00;;;;;;;-145.06;100.00;53843.78;10283395;28;20030;-83
2023/02/12 14:40:47;;;;;;;0.10;0.10;;;;;;;-145.06;100.00;53853.91;10264350;28;20769;-84
2023/02/12 14:45:48;;;;;;;0.05;0.05;;;;;;;-145.06;100.00;53880.22;10281091;28;20035;-83
2023/02/12 14:50:51;;;;;;;0.00;0.00;;;;;;;-145.06;100.00;53872.13;10268646;28;20410;-83
2023/02/12 14:55:52;;;;;;;0.00;0.00;;;;;;;-145.06;100.00;53882.25;10285465;28;20058;-84
2023/02/12 15:00:58;;;;;;;0.10;0.10;;;;;;;-145.06;100.00;53843.78;10278463;28;20498;-83
2023/02/12 15:06:02;;;;;;;0.00;0.00;;;;;;;-145.06;100.00;53866.06;10264829;28;20129;-84
2023/02/12 15:11:26;;;;;;;0.10;0.10;;;;;;;-145.06;100.00;53872.13;10287419;28;20071;-84
2023/02/12 15:16:46;;;;;;;0.10;0.10;;;;;;;-145.06;100.00;53868.09;10282353;28;20553;-84
2023/02/12 15:21:47;;;;;;;0.00;0.00;;;;;;;-145.06;100.00;53870.09;10262374;28;20395;-83
2023/02/12 15:26:50;;;;;;;0.00;0.00;;;;;;;-145.06;100.00;53892.38;10280771;28;20033;-83
2023/02/12 15:31:53;;;;;;;0.10;0.10;;;;;;;-145.06;100.00;53870.09;10281643;28;20114;-83
2023/02/12 15:36:57;;;;;;;0.10;0.10;;;;;;;-145.06;100.00;53862.00;10276651;28;20130;-83
2023/02/12 15:41:57;;;;;;;0.10;0.10;;;;;;;-145.06;100.00;53866.06;10280092;28;20043;-84
2023/02/12 15:47:02;;;;;;;0.00;0.00;;;;;;;-145.06;100.00;53878.22;10263082;28;20038;-85
2023/02/12 15:52:08;;;;;;;0.10;0.10;;;;;;;-145.06;100.00;53896.44;10280092;28;20035;-83
2023/02/12 15:57:20;;;;;;;0.10;0.10;;;;;;;-145.06;100.00;53864.03;10278081;28;20036;-83
2023/02/12 16:02:27;;;;;;;0.00;0.00;;;;;;;-145.06;100.00;53900.50;10280022;28;20045;-84
2023/02/12 16:07:33;;;;;;;0.00;0.00;;;;;;;-145.06;100.00;53864.03;10283114;28;20470;-83
2023/02/12 16:12:36;;;;;;;0.10;0.10;;;;;;;-145.06;100.00;53890.38;10275127;28;20030;-83
2023/02/12 16:17:45;;;;;;;0.10;0.10;;;;;;;-145.06;100.00;53892.38;10284790;28;20031;-83
2023/02/12 16:22:48;;;;;;;0.00;0.00;;;;;;;-145.06;100.00;53906.56;10288119;28;20038;-83
2023/02/12 16:28:19;;;;;;;0.00;0.00;;;;;;;-145.06;100.00;53910.63;10278753;28;20031;-83
2023/02/12 16:33:39;;;;;;;0.10;0.10;;;;;;;-145.06;100.00;53878.22;10276335;28;20086;-84
2023/02/12 16:38:47;;;;;;;0.10;0.10;;;;;;;-145.06;100.00;53888.34;10281182;28;20592;-83
2023/02/12 16:44:16;;;;;;;0.10;0.10;;;;;;;-145.06;100.00;53859.97;10286042;28;20031;-83
2023/02/12 16:49:19;;;;;;;0.00;0.00;;;;;;;-145.06;100.00;53880.22;10291244;28;20070;-84
2023/02/12 16:54:33;;;;;;;0.00;0.00;;;;;;;-145.06;100.00;53853.91;10294172;28;20126;-83
2023/02/12 16:59:35;;;;;;;0.00;0.00;;;;;;;-145.06;100.00;53831.63;10298206;28;20039;-83
2023/02/12 17:04:36;;;;;;;0.10;0.10;;;;;;;-145.06;100.00;53890.38;10274975;28;20130;-83
2023/02/12 17:09:36;;;;;;;0.00;0.00;;;;;;;-145.06;100.00;53882.25;10288272;28;20026;-84
2023/02/12 17:14:37;;;;;;;0.00;0.00;;;;;;;-145.06;100.00;53884.28;10268326;28;20030;-84
2023/02/12 17:19:37;;;;;;;0.00;0.00;;;;;;;-145.06;100.00;53892.38;10295069;28;20034;-83
2023/02/12 17:24:37;;;;;;;0.00;0.00;;;;;;;-145.06;100.00;53900.50;10279119;28;20263;-84
2023/02/12 17:29:37;;;;;;;0.08;0.08;;;;;;;-145.06;100.00;53888.34;10268621;28;20144;-83
2023/02/12 17:34:38;;;;;;;0.10;0.10;;;;;;;-145.06;100.00;53864.03;10289307;28;20484;-83
2023/02/12 17:39:38;;;;;;;0.00;0.00;;;;;;;-145.06;100.00;53910.63;10277131;28;20041;-84
2023/02/12 17:44:39;;;;;;;0.10;0.10;;;;;;;-145.06;100.00;53924.78;10287444;28;20250;-84
2023/02/12 17:49:39;;;;;;;0.00;0.00;;;;;;;-145.06;100.00;53878.22;10278291;28;20038;-83
2023/02/12 17:54:43;;;;;;;0.00;0.00;;;;;;;-145.06;100.00;53884.28;10279561;28;20046;-84
2023/02/12 17:59:43;;;;;;;0.10;0.10;;;;;;;-145.06;100.00;53916.69;10280257;28;20038;-83
2023/02/12 18:04:43;;;;;;;0.10;0.10;;;;;;;-145.06;100.00;53855.94;10276345;28;20061;-84
2023/02/12 18:09:44;;;;;;;0.00;0.00;;;;;;;-145.06;100.00;53884.28;10283248;28;20412;-83
2023/02/12 18:14:44;;;;;;;0.00;0.00;;;;;;;-145.06;100.00;53874.16;10268836;28;20267;-83
2023/02/12 18:19:46;;;;;;;0.10;0.10;;;;;;;-145.06;100.00;53855.94;10286104;28;20030;-83
2023/02/12 18:24:47;;;;;;;0.00;0.00;;;;;;;-145.06;100.00;53874.16;10284304;28;20034;-83
2023/02/12 18:29:47;;;;;;;0.00;0.00;;;;;;;-145.06;100.00;53888.34;10284304;28;20035;-84
2023/02/12 18:34:48;;;;;;;0.00;0.00;;;;;;;-145.06;100.00;53904.53;10278008;28;20034;-84
2023/02/12 18:39:48;;;;;;;0.00;0.00;;;;;;;-145.06;100.00;53886.31;10281986;28;20028;-83
2023/02/12 18:44:51;;;;;;;0.00;0.00;;;;;;;-145.06;100.00;53896.44;10292104;28;20034;-84
2023/02/12 18:49:52;;;;;;;0.00;0.00;;;;;;;-145.06;100.00;53878.22;10267610;28;20031;-84
2023/02/12 18:54:52;;;;;;;0.10;0.10;;;;;;;-145.06;100.00;53906.56;10285631;28;20430;-83
2023/02/12 18:59:52;;;;;;;0.00;0.00;;;;;;;-145.06;100.00;53878.22;10286254;28;20027;-83
2023/02/12 19:04:53;;;;;;;0.00;0.00;;;;;;;-145.06;100.00;53890.38;10278945;28;20125;-83
2023/02/12 19:09:53;;;;;;;0.00;0.00;;;;;;;-145.06;100.00;53894.41;10272722;28;20631;-81
2023/02/12 19:14:53;;;;;;;0.10;0.10;;;;;;;-145.06;100.00;53898.47;10290259;28;20402;-81
2023/02/12 19:19:54;;;;;;;0.00;0.00;;;;;;;-145.06;100.00;53872.13;10282773;28;20034;-81
2023/02/12 19:24:54;;;;;;;0.00;0.00;;;;;;;-145.06;100.00;53900.50;10288177;28;20027;-81
2023/02/12 19:29:54;;;;;;;0.00;0.00;;;;;;;-145.06;100.00;53847.84;10282885;28;20034;-81
2023/02/12 19:34:55;;;;;;;0.03;0.03;;;;;;;-145.06;100.00;53880.22;10282471;28;20034;-81
2023/02/12 19:39:55;;;;;;;0.00;0.00;;;;;;;-145.06;100.00;53864.03;10280896;28;20047;-82
2023/02/12 19:44:55;;;;;;;0.00;0.00;;;;;;;-145.06;100.00;53912.63;10283758;28;20119;-82
2023/02/12 19:49:55;;;;;;;0.00;0.00;;;;;;;-145.06;100.00;53896.44;10271378;28;20023;-83
2023/02/12 19:54:57;;;;;;;0.00;0.00;;;;;;;-145.06;100.00;53876.19;10267079;28;20093;-82
2023/02/12 19:59:57;;;;;;;0.10;0.10;;;;;;;-145.06;100.00;53868.09;10281123;28;20031;-82
2023/02/12 20:10:00;;;;;;;0.10;0.10;;;;;;;-145.06;100.00;53924.78;10369745;28;20476;-82
2023/02/12 20:15:01;;;;;;;0.00;0.00;;;;;;;-145.06;100.00;53872.13;10323761;28;20093;-80
2023/02/12 20:20:03;;;;;;;0.00;0.00;;;;;;;-145.06;100.00;53916.69;10314899;28;20289;-82
2023/02/12 20:25:04;;;;;;;0.10;0.10;;;;;;;-145.06;100.00;53904.53;10320681;28;20049;-82
2023/02/12 20:30:05;;;;;;;0.00;0.00;;;;;;;-145.06;100.00;53890.38;10332848;28;20037;-82
2023/02/12 20:35:05;;;;;;;0.10;0.10;;;;;;;-145.06;100.00;53896.44;10320418;28;20046;-81
2023/02/12 20:40:06;;;;;;;0.10;0.10;;;;;;;-145.06;100.00;53916.69;10339157;28;20393;-83
2023/02/12 20:45:07;;;;;;;0.00;0.00;;;;;;;-145.06;100.00;53876.19;10332212;28;20033;-82
2023/02/12 20:50:08;;;;;;;0.10;0.10;;;;;;;-145.06;100.00;53910.63;10321821;28;20034;-81
2023/02/12 20:55:08;;;;;;;0.00;0.00;;;;;;;-145.06;100.00;53876.19;10310922;28;20089;-81
2023/02/12 21:00:09;;;;;;;0.10;0.10;;;;;;;-145.06;100.00;53902.50;10337782;28;20045;-82
2023/02/12 21:05:09;;;;;;;0.10;0.10;;;;;;;-145.06;100.00;53892.38;10338395;28;20030;-79
2023/02/12 21:10:10;;;;;;;0.00;0.00;;;;;;;-145.06;100.00;53920.75;10334541;28;20102;-80
2023/02/12 21:15:10;;;;;;;0.00;0.00;;;;;;;-145.06;100.00;53857.97;10339451;28;20109;-82
2023/02/12 21:20:11;;;;;;;0.00;0.00;;;;;;;-145.06;100.00;53894.41;10338762;28;20037;-82
2023/02/12 21:25:11;;;;;;;0.00;0.00;;;;;;;-145.06;100.00;53890.38;10315848;28;20462;-82
2023/02/12 21:30:11;;;;;;;0.00;0.00;;;;;;;-145.06;100.00;53896.44;10314748;28;20714;-82
2023/02/12 21:35:12;;;;;;;0.00;0.00;;;;;;;-145.06;100.00;53872.13;10337508;28;20692;-82
2023/02/12 21:40:12;;;;;;;0.00;0.00;;;;;;;-145.06;100.00;53866.06;10313526;28;20069;-83
2023/02/12 21:45:12;;;;;;;0.03;0.03;;;;;;;-145.06;100.00;53906.56;10319630;28;20262;-82
2023/02/12 21:50:13;;;;;;;0.00;0.00;;;;;;;-145.06;100.00;53872.13;10316154;28;20030;-82
2023/02/12 21:55:13;;;;;;;0.10;0.10;;;;;;;-145.06;100.00;53900.50;10333344;28;20826;-80
2023/02/12 22:00:14;;;;;;;0.00;0.00;;;;;;;-145.06;100.00;53872.13;10333148;28;20030;-81
2023/02/12 22:05:14;;;;;;;0.10;0.10;;;;;;;-145.06;100.00;53896.44;10308045;28;20369;-79
2023/02/12 22:10:15;;;;;;;0.00;0.00;;;;;;;-145.06;100.00;53900.50;10334300;28;20081;-79
2023/02/12 22:15:15;;;;;;;0.00;0.00;;;;;;;-145.06;100.00;53894.41;10327342;28;20101;-80
2023/02/12 22:20:16;;;;;;;0.00;0.00;;;;;;;-145.06;100.00;53886.31;10314726;28;20030;-81
2023/02/12 22:25:16;;;;;;;0.00;0.00;;;;;;;-145.06;100.00;53888.34;10310967;28;20093;-81
2023/02/12 22:30:17;;;;;;;0.10;0.10;;;;;;;-145.06;100.00;53896.44;10312433;28;20027;-81
2023/02/12 22:35:17;;;;;;;0.00;0.00;;;;;;;-145.06;100.00;53902.50;10332889;28;20038;-82
2023/02/12 22:40:18;;;;;;;0.00;0.00;;;;;;;-145.06;100.00;53868.09;10316260;28;20113;-81
2023/02/12 22:45:18;;;;;;;0.00;0.00;;;;;;;-145.06;100.00;53855.94;10330834;28;20031;-82
2023/02/12 22:50:19;;;;;;;0.00;0.00;;;;;;;-145.06;100.00;53880.22;10330868;28;20162;-79
2023/02/12 22:55:19;;;;;;;0.00;0.00;;;;;;;-145.06;100.00;53839.72;10332666;28;20057;-80
2023/02/12 23:00:19;;;;;;;0.07;0.07;;;;;;;-145.06;100.00;53882.25;10329692;28;20552;-78
2023/02/12 23:05:20;;;;;;;0.00;0.00;;;;;;;-145.06;100.00;53870.09;10316542;28;20278;-80